Time;durP1;ratioP1;P1;durP2;ratioP2;P2;SDS_P1;SDS_P2;PMS_P1;PMS_P2;Temp;Humidity;BMP_temperature;BMP_pressure;BME280_temperature;BME280_humidity;BME280_pressure;Samples;Min_cycle;Max_cycle;Signal;HPM_P1;HPM_P2
2021/11/17 02:27:53;;;;;;;14.98;8.25;;;4.80;99.90;;;;;;5047882;28;20103;-78
2021/11/17 02:30:37;;;;;;;14.88;8.93;;;4.90;99.90;;;;;;5040772;28;20033;-79
2021/11/17 02:33:14;;;;;;;14.05;8.27;;;4.90;99.90;;;;;;5067406;28;20033;-78
2021/11/17 02:35:49;;;;;;;14.52;9.10;;;4.90;99.90;;;;;;5053053;28;20059;-78
2021/11/17 02:38:56;;;;;;;13.60;8.52;;;4.80;99.90;;;;;;5051728;28;20025;-79
2021/11/17 02:41:28;;;;;;;15.00;8.75;;;4.80;99.90;;;;;;5023504;28;20080;-79
2021/11/17 02:44:00;;;;;;;15.45;8.43;;;4.80;99.90;;;;;;5070590;28;20029;-79
2021/11/17 02:46:48;;;;;;;14.50;8.90;;;4.80;99.90;;;;;;5049798;28;20064;-79
2021/11/17 02:49:26;;;;;;;14.40;8.73;;;4.80;99.90;;;;;;5071094;28;20051;-79
2021/11/17 02:52:07;;;;;;;15.25;9.02;;;4.80;99.90;;;;;;5065704;28;20642;-79
2021/11/17 02:54:35;;;;;;;16.42;9.27;;;4.80;99.90;;;;;;5049436;28;20025;-79
2021/11/17 02:57:19;;;;;;;12.70;8.27;;;4.80;99.90;;;;;;5066691;28;20082;-79
2021/11/17 03:00:11;;;;;;;11.55;7.47;;;4.80;99.90;;;;;;5067013;28;20029;-78
2021/11/17 03:03:01;;;;;;;12.52;7.35;;;4.80;99.90;;;;;;5067554;28;20133;-79
2021/11/17 03:05:39;;;;;;;16.42;9.48;;;4.80;99.90;;;;;;5047752;28;20120;-79
2021/11/17 03:08:30;;;;;;;13.95;8.55;;;4.80;99.90;;;;;;5066358;28;20021;-80
2021/11/17 03:11:17;;;;;;;17.02;9.73;;;4.80;99.90;;;;;;5068618;28;20035;-79
2021/11/17 03:14:15;;;;;;;16.80;9.18;;;4.80;99.90;;;;;;5062016;28;20481;-79
2021/11/17 03:17:29;;;;;;;15.27;9.52;;;4.80;99.90;;;;;;5066539;28;20033;-79
2021/11/17 03:20:13;;;;;;;15.40;9.85;;;4.80;99.90;;;;;;5002479;28;20045;-79
2021/11/17 03:23:10;;;;;;;13.82;8.50;;;4.80;99.90;;;;;;5066455;28;20081;-79
2021/11/17 03:25:54;;;;;;;15.25;8.95;;;4.70;99.90;;;;;;5067691;28;20020;-79
2021/11/17 03:28:53;;;;;;;14.35;9.52;;;4.70;99.90;;;;;;5066736;28;20021;-80
2021/11/17 03:31:28;;;;;;;15.98;8.57;;;4.60;99.90;;;;;;5012506;28;20067;-79
2021/11/17 03:34:03;;;;;;;18.30;10.45;;;4.70;99.90;;;;;;5047767;28;20021;-79
2021/11/17 03:36:44;;;;;;;16.23;9.65;;;4.60;99.90;;;;;;5046135;28;20044;-79
2021/11/17 03:39:42;;;;;;;15.45;8.52;;;4.70;99.90;;;;;;5034202;28;20476;-79
2021/11/17 03:42:26;;;;;;;14.30;9.10;;;4.70;99.90;;;;;;5035931;28;20055;-79
2021/11/17 03:44:58;;;;;;;16.40;8.98;;;4.60;99.90;;;;;;5065143;28;20037;-79
2021/11/17 03:47:56;;;;;;;16.50;10.18;;;4.70;99.90;;;;;;5067263;28;20511;-79
2021/11/17 03:50:38;;;;;;;17.13;9.73;;;4.70;99.90;;;;;;5045450;28;20033;-79
2021/11/17 03:53:26;;;;;;;15.88;10.40;;;4.70;99.90;;;;;;5048434;28;20118;-79
2021/11/17 03:56:10;;;;;;;18.23;9.90;;;4.70;99.90;;;;;;5044447;28;20037;-79
2021/11/17 03:59:04;;;;;;;15.52;9.10;;;4.60;99.90;;;;;;5059139;28;20441;-79
2021/11/17 04:01:52;;;;;;;16.85;9.50;;;4.70;99.90;;;;;;5044495;28;20111;-79
2021/11/17 04:04:21;;;;;;;18.77;9.63;;;4.70;99.90;;;;;;5060425;28;20143;-79
2021/11/17 04:07:04;;;;;;;15.70;9.60;;;4.70;99.90;;;;;;5060088;28;20036;-79
2021/11/17 04:09:59;;;;;;;17.00;10.23;;;4.70;99.90;;;;;;5060891;28;20500;-79
2021/11/17 04:12:40;;;;;;;17.70;10.85;;;4.70;99.90;;;;;;5062133;28;20092;-79
2021/11/17 04:15:31;;;;;;;14.15;9.32;;;4.60;99.90;;;;;;5053488;28;20032;-78
2021/11/17 04:18:06;;;;;;;14.77;8.65;;;4.60;99.90;;;;;;5075577;28;20033;-78
2021/11/17 04:20:55;;;;;;;16.60;9.38;;;4.60;99.90;;;;;;5077320;28;20013;-79
2021/11/17 04:23:39;;;;;;;12.05;7.55;;;4.70;99.90;;;;;;5071010;28;20473;-79
2021/11/17 04:26:35;;;;;;;13.52;8.35;;;4.70;99.90;;;;;;5049967;28;20029;-79
2021/11/17 04:29:22;;;;;;;14.93;8.75;;;4.80;99.90;;;;;;5065453;28;20013;-79
2021/11/17 04:32:13;;;;;;;16.15;9.63;;;4.80;99.90;;;;;;5051987;28;20052;-78
2021/11/17 04:34:48;;;;;;;15.02;8.85;;;4.80;99.90;;;;;;5050224;28;20017;-79
2021/11/17 04:37:46;;;;;;;17.05;10.35;;;4.80;99.90;;;;;;5062757;28;20032;-79
2021/11/17 04:40:14;;;;;;;18.30;11.15;;;4.80;99.90;;;;;;5052099;28;20025;-79
2021/11/17 04:43:11;;;;;;;17.08;10.18;;;4.80;99.90;;;;;;5065888;28;20080;-79
2021/11/17 04:46:12;;;;;;;16.00;9.55;;;4.70;99.90;;;;;;5046585;28;20155;-79
2021/11/17 04:49:02;;;;;;;15.20;9.00;;;4.70;99.90;;;;;;5061339;28;20040;-79
2021/11/17 04:52:05;;;;;;;17.80;11.13;;;4.70;99.90;;;;;;5029209;28;20105;-79
2021/11/17 04:54:44;;;;;;;17.40;10.43;;;4.70;99.90;;;;;;5036742;28;20033;-79
2021/11/17 04:57:15;;;;;;;14.20;9.25;;;4.80;99.90;;;;;;5060453;28;20159;-79
2021/11/17 05:00:09;;;;;;;16.95;9.63;;;4.80;99.90;;;;;;5066661;28;20037;-78
2021/11/17 05:02:47;;;;;;;18.33;9.98;;;4.80;99.90;;;;;;5051282;28;20033;-79
2021/11/17 05:05:49;;;;;;;16.15;9.63;;;4.80;99.90;;;;;;5060632;28;20024;-79
2021/11/17 05:08:47;;;;;;;13.18;8.82;;;4.80;99.90;;;;;;5039773;28;20029;-79
2021/11/17 05:11:44;;;;;;;16.02;9.65;;;4.80;99.90;;;;;;5056748;28;20044;-80
2021/11/17 05:14:33;;;;;;;12.93;8.27;;;4.80;99.90;;;;;;5033151;28;20050;-79
2021/11/17 05:16:59;;;;;;;14.68;8.95;;;4.80;99.90;;;;;;5065802;28;20025;-79
2021/11/17 05:19:30;;;;;;;13.25;8.68;;;4.80;99.90;;;;;;5066703;28;20032;-79
2021/11/17 05:22:18;;;;;;;16.10;9.35;;;4.80;99.90;;;;;;5047637;28;20029;-79
2021/11/17 05:25:02;;;;;;;14.40;9.80;;;4.90;99.90;;;;;;5048208;28;20032;-79
2021/11/17 05:28:04;;;;;;;16.50;9.65;;;4.90;99.90;;;;;;5061414;28;20031;-79
2021/11/17 05:31:18;;;;;;;19.05;9.98;;;4.90;99.90;;;;;;5046624;28;20081;-79
2021/11/17 05:34:07;;;;;;;20.38;10.32;;;4.90;99.90;;;;;;5012710;28;20117;-79
2021/11/17 05:36:49;;;;;;;17.40;9.98;;;4.90;99.90;;;;;;5059579;28;20486;-79
2021/11/17 05:39:30;;;;;;;15.27;8.98;;;4.80;99.90;;;;;;5066592;28;20013;-79
2021/11/17 05:41:59;;;;;;;16.75;9.77;;;4.80;99.90;;;;;;5047581;28;20221;-79
2021/11/17 05:44:42;;;;;;;15.30;9.52;;;4.80;99.90;;;;;;5064443;28;20059;-79
2021/11/17 05:47:23;;;;;;;17.10;9.45;;;4.80;99.90;;;;;;5101835;22;20056;-83
2021/11/17 05:50:21;;;;;;;15.48;9.57;;;4.80;99.90;;;;;;5056898;28;20049;-81
2021/11/17 05:53:05;;;;;;;22.83;10.57;;;4.80;99.90;;;;;;4985290;28;20456;-82
2021/11/17 05:55:58;;;;;;;18.63;10.43;;;4.80;99.90;;;;;;5049895;28;20076;-81
2021/11/17 05:58:46;;;;;;;17.58;9.70;;;4.80;99.90;;;;;;5017310;28;20034;-81
2021/11/17 06:01:53;;;;;;;13.65;8.15;;;4.80;99.90;;;;;;5056515;28;20057;-82
2021/11/17 06:04:19;;;;;;;13.63;8.70;;;4.80;99.90;;;;;;5036318;28;20064;-81
2021/11/17 06:06:44;;;;;;;18.33;10.13;;;4.80;99.90;;;;;;5063569;28;20025;-81
2021/11/17 06:09:10;;;;;;;16.77;10.38;;;4.90;99.90;;;;;;5046729;28;20079;-80
2021/11/17 06:11:48;;;;;;;15.88;9.60;;;4.90;99.90;;;;;;5063292;28;20025;-79
2021/11/17 06:14:21;;;;;;;20.60;10.40;;;5.00;99.90;;;;;;5063695;28;20057;-79
2021/11/17 06:16:54;;;;;;;20.15;11.38;;;4.90;99.90;;;;;;5062867;28;20454;-81
2021/11/17 06:19:24;;;;;;;17.02;10.20;;;4.90;99.90;;;;;;5064031;28;20088;-81
2021/11/17 06:21:51;;;;;;;16.95;10.77;;;4.90;99.90;;;;;;5067420;28;20025;-80
2021/11/17 06:24:20;;;;;;;19.13;12.20;;;4.80;99.90;;;;;;5079251;28;20025;-82
2021/11/17 06:26:47;;;;;;;20.85;10.85;;;4.90;99.90;;;;;;5071856;28;20035;-82
2021/11/17 06:29:15;;;;;;;16.63;10.30;;;4.90;99.90;;;;;;5066522;28;20063;-81
2021/11/17 06:31:42;;;;;;;19.30;10.70;;;4.80;99.90;;;;;;5064547;28;20054;-82
2021/11/17 06:34:32;;;;;;;18.85;10.25;;;4.80;99.90;;;;;;5048307;28;20112;-81
2021/11/17 06:37:00;;;;;;;17.70;10.57;;;4.80;99.90;;;;;;5063566;28;20036;-80
2021/11/17 06:39:27;;;;;;;21.85;11.77;;;4.80;99.90;;;;;;5063936;28;20071;-81
2021/11/17 06:41:54;;;;;;;15.65;9.57;;;4.80;99.90;;;;;;5046214;28;20613;-81
2021/11/17 06:44:20;;;;;;;15.07;9.32;;;4.80;99.90;;;;;;5064879;28;20025;-82
2021/11/17 06:46:46;;;;;;;19.40;10.52;;;4.80;99.90;;;;;;5064425;28;20100;-82
2021/11/17 06:49:12;;;;;;;16.27;9.75;;;4.70;99.90;;;;;;5051110;28;20469;-80
2021/11/17 06:51:38;;;;;;;18.60;10.02;;;4.70;99.90;;;;;;5042159;28;20049;-80
2021/11/17 06:54:04;;;;;;;18.45;10.40;;;4.80;99.90;;;;;;5046902;28;20037;-79
2021/11/17 06:56:30;;;;;;;20.00;10.93;;;4.70;99.90;;;;;;5045589;28;20039;-79
2021/11/17 06:58:56;;;;;;;16.08;9.63;;;4.70;99.90;;;;;;5046255;28;20028;-79
2021/11/17 07:01:22;;;;;;;17.67;10.38;;;4.70;99.90;;;;;;5045828;28;20085;-80
2021/11/17 07:03:48;;;;;;;18.73;11.05;;;4.80;99.90;;;;;;5063557;28;20059;-81
2021/11/17 07:06:13;;;;;;;16.92;10.90;;;4.70;99.90;;;;;;5066725;28;20040;-80
2021/11/17 07:08:39;;;;;;;16.27;10.00;;;4.80;99.90;;;;;;5070934;28;20029;-80
2021/11/17 07:11:05;;;;;;;16.73;9.52;;;4.80;99.90;;;;;;5069557;28;20025;-80
2021/11/17 07:13:31;;;;;;;15.85;9.70;;;4.90;99.90;;;;;;5064812;28;20025;-80
2021/11/17 07:15:57;;;;;;;18.25;10.63;;;4.90;99.90;;;;;;5066032;28;20031;-79
2021/11/17 07:18:23;;;;;;;18.77;11.38;;;5.00;99.90;;;;;;5061044;28;20125;-79
2021/11/17 07:20:49;;;;;;;18.20;10.13;;;5.10;99.90;;;;;;5059802;28;20032;-79
2021/11/17 07:23:16;;;;;;;16.95;10.32;;;5.10;99.90;;;;;;5060686;28;20033;-79
2021/11/17 07:25:42;;;;;;;18.10;10.70;;;5.20;99.90;;;;;;5050730;28;20026;-79
2021/11/17 07:28:08;;;;;;;16.65;9.38;;;5.20;99.90;;;;;;5041231;28;20104;-79
2021/11/17 07:30:39;;;;;;;15.73;9.57;;;5.20;99.90;;;;;;5041709;28;20474;-80
2021/11/17 07:33:06;;;;;;;15.18;9.65;;;5.30;99.90;;;;;;5039271;28;20029;-79
2021/11/17 07:35:34;;;;;;;14.30;8.98;;;5.30;99.90;;;;;;5039873;28;20029;-79
2021/11/17 07:38:01;;;;;;;15.27;9.15;;;5.30;99.90;;;;;;5040806;28;20100;-80
2021/11/17 07:40:33;;;;;;;12.55;8.70;;;5.40;99.90;;;;;;5057180;28;20025;-80
2021/11/17 07:42:59;;;;;;;13.35;8.68;;;5.40;99.90;;;;;;5063334;28;20028;-81
2021/11/17 07:45:25;;;;;;;11.98;8.32;;;5.40;99.90;;;;;;5039416;28;20097;-81
2021/11/17 07:47:52;;;;;;;12.27;7.85;;;5.50;99.90;;;;;;5048973;28;20097;-81
2021/11/17 07:50:19;;;;;;;15.88;9.30;;;5.60;99.90;;;;;;5059076;28;20017;-81
2021/11/17 07:52:45;;;;;;;12.85;8.93;;;5.60;99.90;;;;;;5042252;28;20025;-78
2021/11/17 07:55:14;;;;;;;12.57;8.73;;;5.70;99.90;;;;;;5046598;28;20029;-78
2021/11/17 07:57:43;;;;;;;10.75;7.60;;;5.80;99.90;;;;;;5061067;28;20057;-80
2021/11/17 08:00:18;;;;;;;12.00;8.30;;;5.90;99.90;;;;;;5060743;28;20029;-79
2021/11/17 08:02:45;;;;;;;14.95;7.95;;;6.00;99.90;;;;;;5003623;28;20041;-79
2021/11/17 08:05:12;;;;;;;12.50;8.02;;;6.10;99.90;;;;;;5030589;28;20029;-79
2021/11/17 08:07:39;;;;;;;10.90;7.47;;;6.20;99.90;;;;;;5038076;28;20017;-79
2021/11/17 08:10:20;;;;;;;13.45;8.27;;;6.20;99.90;;;;;;5048578;28;20429;-80
2021/11/17 08:12:46;;;;;;;16.08;8.90;;;6.30;99.90;;;;;;5041178;28;20080;-79
2021/11/17 08:15:12;;;;;;;10.95;7.82;;;6.30;99.90;;;;;;5039058;28;20025;-80
2021/11/17 08:17:40;;;;;;;15.88;9.48;;;6.30;99.90;;;;;;5038826;28;20105;-80
2021/11/17 08:20:12;;;;;;;14.43;8.77;;;6.30;99.90;;;;;;5040107;28;20021;-78
2021/11/17 08:22:42;;;;;;;;;;;6.40;99.90;;;;;;5039274;28;20049;-78
2021/11/17 08:25:09;;;;;;;10.88;7.95;;;6.40;99.90;;;;;;5060668;28;19905;-80
2021/11/17 08:27:35;;;;;;;10.57;7.22;;;6.40;99.90;;;;;;5060135;28;20032;-80
2021/11/17 08:30:01;;;;;;;12.32;7.78;;;6.40;99.90;;;;;;5067742;28;20009;-79
2021/11/17 08:32:27;;;;;;;12.13;8.02;;;6.50;99.90;;;;;;5058370;28;20033;-80
2021/11/17 08:34:53;;;;;;;11.35;7.68;;;6.60;99.90;;;;;;5061023;28;20104;-80
2021/11/17 08:37:19;;;;;;;12.93;9.02;;;6.60;99.90;;;;;;5042630;28;20470;-80
2021/11/17 08:39:47;;;;;;;13.43;8.57;;;6.60;99.90;;;;;;5047434;28;20032;-80
2021/11/17 08:42:15;;;;;;;12.57;8.82;;;6.60;99.90;;;;;;5006123;28;20025;-78
2021/11/17 08:44:43;;;;;;;15.45;9.13;;;6.50;99.90;;;;;;5039370;28;20029;-79
2021/11/17 08:47:11;;;;;;;13.40;8.27;;;6.60;99.90;;;;;;5038527;28;20029;-79
2021/11/17 08:49:38;;;;;;;12.88;9.23;;;6.60;99.90;;;;;;5052240;28;20052;-80
2021/11/17 08:52:06;;;;;;;18.50;10.50;;;6.60;99.90;;;;;;5059994;28;20088;-81
2021/11/17 08:54:33;;;;;;;13.35;9.02;;;6.60;99.90;;;;;;5020214;28;20144;-79
2021/11/17 08:57:00;;;;;;;14.00;9.02;;;6.50;99.90;;;;;;5037302;28;20025;-79
2021/11/17 08:59:26;;;;;;;13.32;9.10;;;6.50;99.90;;;;;;5038266;28;20040;-79
2021/11/17 09:01:56;;;;;;;12.40;8.70;;;6.50;99.90;;;;;;5038683;28;20112;-80
2021/11/17 09:04:22;;;;;;;13.85;9.20;;;6.40;99.90;;;;;;5038580;28;20072;-80
2021/11/17 09:06:48;;;;;;;13.85;8.25;;;6.40;99.90;;;;;;5038321;28;20025;-80
2021/11/17 09:09:14;;;;;;;13.30;9.07;;;6.40;99.90;;;;;;5046486;28;20032;-80
2021/11/17 09:11:41;;;;;;;15.07;9.32;;;6.30;99.90;;;;;;5054742;28;20381;-80
2021/11/17 09:14:07;;;;;;;14.88;9.82;;;6.20;99.90;;;;;;5058096;28;20049;-79
2021/11/17 09:16:34;;;;;;;14.05;9.02;;;6.20;99.90;;;;;;5058221;28;20388;-80
2021/11/17 09:19:03;;;;;;;12.27;7.95;;;6.10;99.90;;;;;;5058818;28;20379;-80
2021/11/17 09:21:32;;;;;;;12.85;8.32;;;6.00;99.90;;;;;;5057620;28;20045;-81
2021/11/17 09:23:58;;;;;;;17.48;8.90;;;6.00;99.90;;;;;;5038475;28;20145;-81
2021/11/17 09:26:24;;;;;;;14.18;9.18;;;6.00;99.90;;;;;;5039790;28;20056;-80
2021/11/17 09:28:52;;;;;;;13.65;9.02;;;6.10;99.90;;;;;;5051527;28;20036;-80
2021/11/17 09:31:20;;;;;;;17.50;10.05;;;6.20;99.90;;;;;;5061126;28;20025;-80
2021/11/17 09:33:46;;;;;;;18.17;9.85;;;6.20;99.90;;;;;;5061408;28;20162;-80
2021/11/17 09:36:14;;;;;;;16.23;10.23;;;6.20;99.90;;;;;;5062471;28;20025;-80
2021/11/17 09:38:40;;;;;;;14.25;9.13;;;6.30;99.90;;;;;;5036291;28;20036;-81
2021/11/17 09:41:13;;;;;;;14.38;8.45;;;6.30;99.90;;;;;;5060344;28;20059;-81
2021/11/17 09:43:43;;;;;;;15.45;8.98;;;6.40;99.90;;;;;;5061506;28;20025;-80
2021/11/17 09:46:11;;;;;;;14.00;7.82;;;6.40;99.90;;;;;;5060059;28;20504;-80
2021/11/17 09:48:42;;;;;;;14.38;9.23;;;6.40;99.90;;;;;;5064335;28;20016;-80
2021/11/17 09:51:25;;;;;;;13.75;9.52;;;6.40;99.90;;;;;;5065372;28;20053;-80
2021/11/17 09:54:00;;;;;;;13.40;8.43;;;6.30;99.90;;;;;;5061460;28;20058;-81
2021/11/17 09:56:38;;;;;;;12.50;8.02;;;6.30;99.90;;;;;;5060944;28;20385;-81
2021/11/17 09:59:19;;;;;;;12.63;8.70;;;6.30;99.90;;;;;;5061727;28;20039;-81
2021/11/17 10:01:48;;;;;;;15.02;7.55;;;6.30;99.90;;;;;;5069551;28;20508;-80
2021/11/17 10:04:21;;;;;;;13.93;8.10;;;6.30;99.90;;;;;;5062934;28;20101;-80
2021/11/17 10:15:02;;;;;;;12.90;7.40;;;6.30;99.90;;;;;;5026896;28;19912;-79
2021/11/17 10:17:29;;;;;;;11.95;8.68;;;6.20;99.90;;;;;;5006878;28;20020;-79
2021/11/17 10:20:19;;;;;;;10.68;7.00;;;6.10;99.90;;;;;;5024240;28;20037;-79
2021/11/17 10:23:16;;;;;;;10.80;7.60;;;6.10;99.90;;;;;;5028486;28;20038;-79
2021/11/17 10:26:06;;;;;;;10.68;7.28;;;6.00;99.90;;;;;;5024376;28;20042;-80
2021/11/17 10:28:40;;;;;;;10.50;7.18;;;6.00;99.90;;;;;;5029309;28;20022;-79
2021/11/17 10:31:10;;;;;;;13.90;7.63;;;5.90;99.90;;;;;;5030568;28;20056;-79
2021/11/17 10:34:10;;;;;;;11.70;7.43;;;5.90;99.90;;;;;;5033827;28;20079;-80
2021/11/17 10:37:13;;;;;;;11.32;6.68;;;5.90;99.90;;;;;;5032395;28;20040;-80
2021/11/17 10:39:39;;;;;;;10.45;7.57;;;6.00;99.90;;;;;;5050238;28;20013;-80
2021/11/17 10:42:07;;;;;;;11.90;6.75;;;5.90;99.90;;;;;;5070946;28;20021;-80
2021/11/17 10:44:45;;;;;;;11.25;7.38;;;5.90;99.90;;;;;;5043505;28;20041;-81
2021/11/17 10:47:36;;;;;;;11.50;6.60;;;6.00;99.90;;;;;;5045058;28;20234;-80
2021/11/17 10:50:07;;;;;;;9.02;6.00;;;6.10;99.90;;;;;;5038635;28;20121;-81
2021/11/17 10:52:39;;;;;;;8.77;7.07;;;6.10;99.90;;;;;;5027895;28;20028;-81
2021/11/17 10:55:19;;;;;;;8.05;5.97;;;6.20;99.90;;;;;;5045800;28;20331;-80
2021/11/17 10:57:46;;;;;;;7.93;5.18;;;6.20;99.90;;;;;;5044702;28;20025;-81
2021/11/17 11:00:14;;;;;;;7.78;5.47;;;6.30;99.90;;;;;;5045008;28;20429;-80
2021/11/17 11:02:41;;;;;;;9.02;5.97;;;6.30;99.90;;;;;;5044384;28;20202;-80
2021/11/17 11:05:15;;;;;;;11.05;6.13;;;6.40;99.90;;;;;;5044258;28;20028;-80
2021/11/17 11:07:57;;;;;;;7.28;5.20;;;6.50;99.90;;;;;;5026575;28;20044;-79
2021/11/17 11:10:46;;;;;;;;;;;6.50;99.90;;;;;;5039798;28;20032;-80
2021/11/17 11:13:38;;;;;;;7.70;5.40;;;6.50;99.90;;;;;;5063874;28;19908;-80
2021/11/17 11:16:15;;;;;;;7.72;5.75;;;6.50;99.90;;;;;;5033362;28;20037;-80
2021/11/17 11:18:46;;;;;;;7.38;5.18;;;6.60;99.90;;;;;;5026179;28;20029;-80
2021/11/17 11:21:15;;;;;;;10.50;5.90;;;6.50;99.90;;;;;;5045697;28;20060;-80
2021/11/17 11:24:26;;;;;;;7.75;5.57;;;6.50;99.90;;;;;;5055471;28;20025;-79
2021/11/17 11:26:58;;;;;;;8.43;5.15;;;6.50;99.90;;;;;;5005542;28;20056;-81
2021/11/17 11:29:36;;;;;;;8.15;5.15;;;6.40;99.90;;;;;;5043947;28;20044;-81
2021/11/17 11:32:29;;;;;;;6.80;4.53;;;6.40;99.90;;;;;;5027383;28;20052;-81
2021/11/17 11:34:58;;;;;;;9.43;6.43;;;6.40;99.90;;;;;;5032986;28;20030;-81
2021/11/17 11:37:44;;;;;;;7.63;5.30;;;6.60;99.90;;;;;;5042329;28;20040;-81
2021/11/17 11:40:19;;;;;;;29.23;16.33;;;6.60;99.70;;;;;;5049995;28;20494;-81
2021/11/17 11:43:00;;;;;;;48.30;24.10;;;6.70;99.30;;;;;;5043146;28;20096;-81
2021/11/17 11:47:58;;;;;;;27.90;14.55;;;6.80;98.90;;;;;;5082744;28;20059;-82
2021/11/17 11:50:30;;;;;;;16.67;10.80;;;6.90;98.70;;;;;;5070811;28;20021;-81
2021/11/17 11:53:19;;;;;;;9.55;6.15;;;7.00;98.10;;;;;;5088119;28;20384;-82
2021/11/17 11:55:53;;;;;;;5.45;4.38;;;7.10;97.70;;;;;;5099055;28;20096;-82
2021/11/17 11:58:19;;;;;;;5.93;4.65;;;7.30;96.70;;;;;;5103420;28;20024;-82
2021/11/17 12:00:55;;;;;;;6.63;4.15;;;7.30;96.60;;;;;;5102745;28;20025;-82
2021/11/17 12:03:24;;;;;;;7.13;4.18;;;7.40;96.40;;;;;;5086585;28;20028;-82
2021/11/17 12:06:04;;;;;;;8.60;3.90;;;7.40;96.30;;;;;;5070863;28;20028;-80
2021/11/17 12:08:39;;;;;;;7.70;3.75;;;7.50;96.20;;;;;;5101550;28;20051;-80
2021/11/17 12:11:05;;;;;;;7.85;4.28;;;7.60;95.40;;;;;;5086706;28;20024;-81
2021/11/17 12:13:38;;;;;;;6.75;4.15;;;7.60;95.10;;;;;;5101617;28;20028;-81
2021/11/17 12:16:08;;;;;;;5.15;3.38;;;7.50;95.00;;;;;;5071738;28;20047;-81
2021/11/17 12:19:03;;;;;;;8.30;3.90;;;7.40;95.10;;;;;;5096468;28;20035;-81
2021/11/17 12:21:32;;;;;;;7.25;4.45;;;7.40;94.90;;;;;;5086982;28;20024;-80
2021/11/17 12:24:09;;;;;;;8.85;4.20;;;7.40;95.50;;;;;;5080615;28;20028;-81
2021/11/17 12:26:47;;;;;;;9.02;4.35;;;7.40;95.90;;;;;;5103784;28;20020;-81
2021/11/17 12:29:20;;;;;;;5.38;3.83;;;7.50;95.30;;;;;;5071706;28;20017;-80
2021/11/17 12:31:56;;;;;;;3.95;2.80;;;7.50;95.20;;;;;;5085924;28;20024;-81
2021/11/17 12:34:50;;;;;;;4.57;3.05;;;7.50;94.90;;;;;;5085787;28;20028;-81
2021/11/17 12:37:42;;;;;;;5.70;3.63;;;7.50;95.00;;;;;;5068317;28;20040;-82
2021/11/17 12:40:34;;;;;;;6.47;3.47;;;7.40;94.70;;;;;;5079247;28;20104;-80
2021/11/17 12:43:02;;;;;;;10.32;7.40;;;7.40;95.00;;;;;;5067505;28;20066;-79
2021/11/17 12:45:34;;;;;;;5.65;4.03;;;7.30;94.60;;;;;;5090288;28;20031;-81
2021/11/17 12:48:11;;;;;;;12.07;7.82;;;7.30;94.60;;;;;;5115138;28;20056;-81
2021/11/17 12:50:46;;;;;;;36.75;22.05;;;7.30;94.90;;;;;;5095782;28;20023;-81
2021/11/17 12:53:17;;;;;;;36.15;20.00;;;7.30;95.10;;;;;;5073060;28;20028;-82
2021/11/17 12:55:54;;;;;;;21.77;12.43;;;7.50;95.10;;;;;;5068826;28;20035;-81
2021/11/17 12:58:36;;;;;;;8.13;5.57;;;7.50;94.50;;;;;;5075033;28;20020;-80
2021/11/17 13:01:20;;;;;;;9.82;8.35;;;7.50;94.20;;;;;;5091049;28;20077;-81
2021/11/17 13:03:48;;;;;;;6.22;3.80;;;7.40;94.50;;;;;;5092074;28;20092;-80
2021/11/17 13:06:28;;;;;;;5.32;4.40;;;7.30;94.70;;;;;;5092387;28;20053;-80
2021/11/17 13:09:21;;;;;;;4.88;3.45;;;7.30;95.00;;;;;;5086983;28;20370;-81
2021/11/17 13:11:55;;;;;;;;;;;7.20;95.50;;;;;;5068930;28;20020;-80
2021/11/17 13:14:32;;;;;;;4.90;3.42;;;7.10;95.50;;;;;;5068114;28;19995;-81
2021/11/17 13:20:43;;;;;;;5.05;3.28;;;7.10;96.30;;;;;;5065933;28;20370;-82
2021/11/17 13:23:09;;;;;;;5.00;3.47;;;7.20;96.30;;;;;;5085534;28;20028;-82
2021/11/17 13:26:09;;;;;;;6.22;3.28;;;7.20;96.20;;;;;;5085603;28;20020;-81
2021/11/17 13:28:41;;;;;;;4.60;2.55;;;7.20;96.00;;;;;;5087013;28;20084;-82
2021/11/17 13:31:26;;;;;;;6.15;3.03;;;7.20;95.80;;;;;;5085064;28;20025;-80
2021/11/17 13:34:29;;;;;;;5.57;3.22;;;7.20;95.70;;;;;;5066742;28;20032;-82
2021/11/17 13:37:13;;;;;;;5.13;3.50;;;7.10;95.80;;;;;;5086118;28;20055;-80
2021/11/17 13:39:39;;;;;;;4.55;2.97;;;6.90;96.60;;;;;;5066830;28;20420;-80
2021/11/17 13:42:05;;;;;;;6.13;3.80;;;6.80;97.40;;;;;;5068300;28;20041;-80
2021/11/17 13:44:31;;;;;;;4.65;3.45;;;6.80;96.90;;;;;;5087578;28;20040;-81
2021/11/17 13:46:59;;;;;;;3.97;2.83;;;6.80;97.10;;;;;;5072977;28;20407;-80
2021/11/17 13:49:26;;;;;;;7.43;3.40;;;6.70;97.20;;;;;;5081257;28;20047;-81
2021/11/17 13:51:52;;;;;;;6.68;3.38;;;6.60;97.70;;;;;;5092757;28;20028;-79
2021/11/17 13:54:19;;;;;;;4.65;3.17;;;6.60;97.40;;;;;;5074616;28;20058;-80
2021/11/17 13:56:45;;;;;;;5.07;2.90;;;6.60;97.40;;;;;;5091797;28;20025;-80
2021/11/17 13:59:11;;;;;;;3.80;2.65;;;6.60;97.60;;;;;;5091843;28;20496;-79
2021/11/17 14:01:37;;;;;;;3.20;2.63;;;6.70;97.30;;;;;;5090015;28;20024;-79
2021/11/17 14:04:04;;;;;;;6.45;3.05;;;6.70;97.30;;;;;;5067763;28;20052;-81
2021/11/17 14:06:29;;;;;;;8.60;3.95;;;6.80;97.40;;;;;;5071569;28;20024;-82
2021/11/17 14:08:55;;;;;;;6.15;4.65;;;6.80;97.10;;;;;;5091744;28;20062;-81
2021/11/17 14:11:21;;;;;;;4.88;3.30;;;6.90;96.30;;;;;;5085844;28;20429;-81
2021/11/17 14:13:47;;;;;;;5.75;3.15;;;7.00;96.50;;;;;;5100555;28;20028;-81
2021/11/17 14:16:15;;;;;;;7.05;3.40;;;7.00;96.00;;;;;;5085455;28;20047;-81
2021/11/17 14:18:42;;;;;;;3.47;2.65;;;6.90;96.00;;;;;;5075993;28;20048;-82
2021/11/17 14:21:09;;;;;;;5.05;2.97;;;6.80;96.30;;;;;;5100561;28;20024;-80
2021/11/17 14:23:36;;;;;;;6.10;3.88;;;6.80;96.80;;;;;;5085787;28;20024;-81
2021/11/17 14:26:04;;;;;;;7.22;4.00;;;6.80;96.30;;;;;;5068309;28;20024;-81
2021/11/17 14:28:34;;;;;;;7.18;4.78;;;6.80;96.30;;;;;;5070645;28;20046;-81
2021/11/17 14:31:09;;;;;;;7.07;4.05;;;6.70;96.50;;;;;;5089116;28;20016;-81
2021/11/17 14:33:35;;;;;;;6.70;4.25;;;6.60;96.70;;;;;;5090474;28;20548;-81
2021/11/17 14:36:06;;;;;;;10.80;5.10;;;6.50;97.10;;;;;;5106773;28;20388;-81
2021/11/17 14:38:33;;;;;;;6.43;4.20;;;6.50;97.00;;;;;;5090462;28;20031;-80
2021/11/17 14:41:00;;;;;;;4.90;3.75;;;6.50;97.10;;;;;;5090458;28;20039;-83
2021/11/17 14:43:26;;;;;;;4.68;3.42;;;6.40;97.50;;;;;;5071459;28;20047;-81
2021/11/17 14:45:53;;;;;;;8.63;3.25;;;6.30;97.80;;;;;;5090197;28;20046;-81
2021/11/17 14:48:20;;;;;;;6.10;4.00;;;6.20;98.00;;;;;;5091127;28;20028;-82
2021/11/17 14:50:48;;;;;;;5.75;4.07;;;6.10;98.40;;;;;;5110040;28;20106;-80
2021/11/17 14:53:15;;;;;;;5.22;4.13;;;6.10;98.60;;;;;;5110204;28;20023;-80
2021/11/17 14:55:44;;;;;;;6.47;3.90;;;6.00;98.80;;;;;;5098066;28;20054;-79
2021/11/17 14:58:10;;;;;;;4.63;3.50;;;6.00;98.60;;;;;;5074214;28;20033;-80
2021/11/17 15:00:40;;;;;;;3.58;3.00;;;5.90;98.70;;;;;;5084828;28;20383;-79
2021/11/17 15:03:06;;;;;;;5.22;3.45;;;5.90;98.20;;;;;;5081664;28;20024;-83
2021/11/17 15:05:32;;;;;;;4.70;3.28;;;6.00;98.10;;;;;;5077320;28;20615;-81
2021/11/17 15:07:59;;;;;;;4.47;2.97;;;5.90;98.30;;;;;;5084724;28;20047;-79
2021/11/17 15:10:26;;;;;;;5.00;2.85;;;5.80;98.20;;;;;;5083494;28;20468;-79
2021/11/17 15:12:52;;;;;;;4.30;2.58;;;5.90;98.30;;;;;;5084162;28;20021;-79
2021/11/17 15:15:22;;;;;;;4.10;2.38;;;5.80;98.60;;;;;;5067953;28;20122;-78
2021/11/17 15:17:48;;;;;;;3.58;2.58;;;5.80;98.50;;;;;;5065901;28;20029;-79
2021/11/17 15:20:14;;;;;;;4.68;3.60;;;5.80;98.50;;;;;;5087830;28;20035;-78
2021/11/17 15:22:43;;;;;;;3.35;3.05;;;5.90;98.10;;;;;;5107801;28;20307;-78
2021/11/17 15:25:12;;;;;;;4.25;3.08;;;5.90;98.10;;;;;;5059167;28;20016;-78
2021/11/17 15:27:44;;;;;;;3.47;2.97;;;5.90;98.20;;;;;;5099191;28;20020;-79
2021/11/17 15:30:26;;;;;;;6.07;2.88;;;5.80;98.40;;;;;;5085674;28;20037;-78
2021/11/17 15:32:53;;;;;;;2.63;2.42;;;5.80;98.50;;;;;;5086145;28;20021;-78
2021/11/17 15:35:21;;;;;;;4.10;2.78;;;5.90;98.30;;;;;;5094455;28;20085;-79
2021/11/17 15:37:50;;;;;;;3.92;2.90;;;5.80;98.80;;;;;;5084912;28;20025;-77
2021/11/17 15:40:18;;;;;;;4.20;3.13;;;5.80;98.90;;;;;;5083911;28;20021;-78
2021/11/17 15:42:46;;;;;;;4.97;3.28;;;5.80;99.00;;;;;;5084603;28;20085;-77
2021/11/17 15:45:13;;;;;;;4.03;2.70;;;5.80;99.00;;;;;;5085438;28;20044;-77
2021/11/17 15:47:39;;;;;;;6.82;2.72;;;5.70;99.20;;;;;;5094909;28;20037;-78
2021/11/17 15:50:11;;;;;;;8.90;2.70;;;5.80;99.40;;;;;;5084373;28;20036;-77
2021/11/17 15:52:37;;;;;;;7.28;2.85;;;5.70;99.70;;;;;;5084531;28;20025;-78
2021/11/17 15:55:03;;;;;;;4.45;2.55;;;5.70;99.70;;;;;;5067050;28;20043;-78
2021/11/17 15:57:33;;;;;;;4.43;2.72;;;5.70;99.80;;;;;;5066677;28;20029;-80
2021/11/17 15:59:59;;;;;;;4.13;2.17;;;5.80;99.70;;;;;;5099480;28;20028;-77
2021/11/17 16:02:25;;;;;;;5.28;2.90;;;5.80;99.50;;;;;;5084226;28;20029;-78
2021/11/17 16:04:50;;;;;;;4.97;2.78;;;5.70;99.70;;;;;;5065467;28;20130;-77
2021/11/17 16:07:19;;;;;;;3.28;2.40;;;5.70;99.80;;;;;;5099582;28;20107;-78
2021/11/17 16:09:54;;;;;;;3.90;2.67;;;5.70;99.80;;;;;;5085692;28;20021;-78
2021/11/17 16:12:24;;;;;;;4.13;2.58;;;5.70;99.40;;;;;;5099443;28;20025;-77